Time;durP1;ratioP1;P1;durP2;ratioP2;P2;SDS_P1;SDS_P2;PMS_P1;PMS_P2;Temp;Humidity;BMP_temperature;BMP_pressure;BME280_temperature;BME280_humidity;BME280_pressure;Samples;Min_cycle;Max_cycle;Signal;HPM_P1;HPM_P2
2022/03/18 00:00:21;;;;;;;;;;;7.00;99.90;;;;;;4873270;29;19943;-89
2022/03/18 00:02:55;;;;;;;;;;;7.00;99.90;;;;;;4879335;29;19916;-88
2022/03/18 00:05:23;;;;;;;;;;;6.90;99.90;;;;;;4868109;29;20096;-90
2022/03/18 00:07:52;;;;;;;;;;;6.90;99.90;;;;;;4882814;29;19934;-89
2022/03/18 00:10:19;;;;;;;;;;;6.90;99.90;;;;;;4882138;29;19916;-89
2022/03/18 00:12:48;;;;;;;;;;;6.90;99.90;;;;;;4893026;29;19931;-90
2022/03/18 00:15:16;;;;;;;;;;;6.90;99.90;;;;;;4888471;29;19928;-90
2022/03/18 00:17:44;;;;;;;;;;;6.90;99.90;;;;;;4889833;29;19932;-90
2022/03/18 00:20:12;;;;;;;;;;;6.90;99.90;;;;;;4858727;29;19927;-90
2022/03/18 00:22:41;;;;;;;;;;;6.80;99.90;;;;;;4850677;29;19932;-89
2022/03/18 00:25:09;;;;;;;;;;;6.80;99.90;;;;;;4887764;29;20276;-91
2022/03/18 00:27:38;;;;;;;;;;;6.70;99.90;;;;;;4885738;29;19928;-90
2022/03/18 00:30:06;;;;;;;;;;;6.70;99.90;;;;;;4870382;29;19934;-90
2022/03/18 00:32:34;;;;;;;;;;;6.70;99.90;;;;;;4888379;29;19927;-90
2022/03/18 00:35:23;;;;;;;;;;;6.70;99.90;;;;;;4853448;29;19935;-90
2022/03/18 00:37:51;;;;;;;;;;;6.60;99.90;;;;;;4867608;29;19940;-90
2022/03/18 00:40:18;;;;;;;;;;;6.60;99.90;;;;;;4863282;29;19943;-90
2022/03/18 00:42:46;;;;;;;;;;;6.60;99.90;;;;;;4846908;29;19933;-89
2022/03/18 00:45:15;;;;;;;;;;;6.50;99.90;;;;;;4870288;29;19923;-90
2022/03/18 00:53:15;;;;;;;;;;;6.40;99.90;;;;;;4883703;29;19931;-90
2022/03/18 00:55:42;;;;;;;;;;;6.40;99.90;;;;;;4872541;29;19937;-90
2022/03/18 00:58:10;;;;;;;;;;;6.30;99.90;;;;;;4890904;29;20257;-89
2022/03/18 01:00:38;;;;;;;;;;;6.30;99.90;;;;;;4884914;29;19943;-90
2022/03/18 01:03:07;;;;;;;;;;;6.40;99.90;;;;;;4889104;29;19932;-90
2022/03/18 01:05:35;;;;;;;;;;;6.30;99.90;;;;;;4857961;29;19932;-89
2022/03/18 01:08:02;;;;;;;;;;;6.30;99.90;;;;;;4864382;29;19928;-89
2022/03/18 01:10:30;;;;;;;;;;;6.30;99.90;;;;;;4897141;29;19936;-90
2022/03/18 01:12:57;;;;;;;;;;;6.30;99.90;;;;;;4884884;29;19935;-90
2022/03/18 01:15:25;;;;;;;;;;;6.30;99.90;;;;;;4864096;29;19934;-89
2022/03/18 01:17:52;;;;;;;;;;;6.20;99.90;;;;;;4881374;29;19932;-90
2022/03/18 01:20:20;;;;;;;;;;;6.30;99.90;;;;;;4880027;29;19927;-89
2022/03/18 01:22:48;;;;;;;;;;;6.20;99.90;;;;;;4880079;29;19944;-90
2022/03/18 01:25:15;;;;;;;;;;;6.20;99.90;;;;;;4881646;29;19939;-91
2022/03/18 01:27:44;;;;;;;;;;;6.20;99.90;;;;;;4863924;29;19947;-91
2022/03/18 01:30:13;;;;;;;;;;;6.10;99.90;;;;;;4847355;29;20398;-90
2022/03/18 01:32:41;;;;;;;;;;;5.90;99.90;;;;;;4863335;29;19927;-89
2022/03/18 01:35:10;;;;;;;;;;;6.10;99.90;;;;;;4878162;29;19935;-90
2022/03/18 01:37:37;;;;;;;;;;;6.10;99.90;;;;;;4871165;29;19928;-91
2022/03/18 01:40:05;;;;;;;;;;;6.00;99.90;;;;;;4886361;29;19927;-90
2022/03/18 01:42:32;;;;;;;;;;;6.00;99.90;;;;;;4879487;29;19934;-89
2022/03/18 01:45:00;;;;;;;;;;;6.00;99.90;;;;;;4866806;29;19966;-89
2022/03/18 01:47:28;;;;;;;;;;;5.90;99.90;;;;;;4864634;29;20285;-90
2022/03/18 01:49:58;;;;;;;;;;;5.90;99.90;;;;;;4879893;29;19951;-90
2022/03/18 01:52:25;;;;;;;;;;;5.90;99.90;;;;;;4867190;29;19932;-91
2022/03/18 01:54:53;;;;;;;;;;;5.80;99.90;;;;;;4879815;29;19954;-90
2022/03/18 01:57:23;;;;;;;;;;;5.80;99.90;;;;;;4881086;29;19934;-89
2022/03/18 01:59:52;;;;;;;;;;;5.80;99.90;;;;;;4869141;29;19939;-88
2022/03/18 02:02:20;;;;;;;;;;;5.80;99.90;;;;;;4881262;29;19932;-88
2022/03/18 02:04:49;;;;;;;;;;;5.70;99.90;;;;;;4879815;29;19935;-89
2022/03/18 02:07:17;;;;;;;;;;;5.70;99.90;;;;;;4863665;29;19928;-88
2022/03/18 02:09:44;;;;;;;;;;;5.60;99.90;;;;;;4863026;29;20363;-89
2022/03/18 02:12:12;;;;;;;;;;;5.60;99.90;;;;;;4844240;29;19928;-88
2022/03/18 02:14:41;;;;;;;;;;;5.60;99.90;;;;;;4859035;29;19935;-89
2022/03/18 02:17:13;;;;;;;;;;;5.50;99.90;;;;;;4872903;29;19932;-89
2022/03/18 02:19:42;;;;;;;;;;;5.50;99.90;;;;;;4880144;29;20308;-89
2022/03/18 02:22:14;;;;;;;;;;;5.50;99.90;;;;;;4873712;29;20380;-88
2022/03/18 02:24:45;;;;;;;;;;;5.50;99.90;;;;;;4890010;29;20150;-89
2022/03/18 02:27:13;;;;;;;;;;;5.50;99.90;;;;;;4893073;29;19943;-88
2022/03/18 02:29:41;;;;;;;;;;;5.50;99.90;;;;;;4881235;29;19932;-89
2022/03/18 02:32:09;;;;;;;;;;;5.40;99.90;;;;;;4879622;29;19935;-89
2022/03/18 02:34:37;;;;;;;;;;;5.40;99.90;;;;;;4884408;29;19935;-87
2022/03/18 02:37:05;;;;;;;;;;;5.40;99.90;;;;;;4879492;29;20293;-89
2022/03/18 02:39:33;;;;;;;;;;;6.10;99.90;;;;;;4847294;29;19927;-89
2022/03/18 02:42:01;;;;;;;;;;;5.30;99.90;;;;;;4876379;29;19927;-89
2022/03/18 02:44:28;;;;;;;;;;;5.30;99.90;;;;;;4879041;29;19935;-88
2022/03/18 02:46:58;;;;;;;;;;;5.30;99.90;;;;;;4848268;29;19932;-88
2022/03/18 02:49:26;;;;;;;;;;;5.20;99.90;;;;;;4862336;29;19932;-88
2022/03/18 02:51:56;;;;;;;;;;;5.20;99.90;;;;;;4850591;29;19931;-88
2022/03/18 02:54:24;;;;;;;;;;;5.10;99.90;;;;;;4874836;29;19935;-89
2022/03/18 02:56:52;;;;;;;;;;;5.10;99.90;;;;;;4866048;29;19934;-89
2022/03/18 02:59:20;;;;;;;;;;;5.10;99.90;;;;;;4865003;29;19927;-89
2022/03/18 03:01:48;;;;;;;;;;;5.00;99.90;;;;;;4866820;29;19935;-88
2022/03/18 03:04:17;;;;;;;;;;;5.10;99.90;;;;;;4883201;29;19938;-88
2022/03/18 03:09:32;;;;;;;;;;;5.00;99.90;;;;;;4866393;29;19939;-88
2022/03/18 03:12:00;;;;;;;;;;;5.00;99.90;;;;;;4881266;29;19934;-89
2022/03/18 03:14:27;;;;;;;;;;;4.90;99.90;;;;;;4868740;29;19939;-88
2022/03/18 03:16:55;;;;;;;;;;;4.90;99.90;;;;;;4857900;29;19928;-89
2022/03/18 03:19:22;;;;;;;;;;;4.90;99.90;;;;;;4881952;29;19928;-87
2022/03/18 03:21:50;;;;;;;;;;;4.90;99.90;;;;;;4871465;29;19928;-89
2022/03/18 03:24:17;;;;;;;;;;;5.10;99.90;;;;;;4884648;29;19927;-88
2022/03/18 03:26:45;;;;;;;;;;;4.80;99.90;;;;;;4879424;29;19939;-89
2022/03/18 03:29:12;;;;;;;;;;;4.10;99.90;;;;;;4882860;29;19944;-89
2022/03/18 03:31:39;;;;;;;;;;;4.80;99.90;;;;;;4866466;29;19936;-89
2022/03/18 03:34:07;;;;;;;;;;;4.80;99.90;;;;;;4867182;29;19928;-89
2022/03/18 03:36:35;;;;;;;;;;;4.80;99.90;;;;;;4880509;29;19975;-89
2022/03/18 03:39:02;;;;;;;;;;;4.70;99.90;;;;;;4882401;29;19928;-89
2022/03/18 03:41:31;;;;;;;;;;;4.70;99.90;;;;;;4881339;29;19939;-89
2022/03/18 03:44:00;;;;;;;;;;;4.70;99.90;;;;;;4882177;29;19928;-89
2022/03/18 03:46:28;;;;;;;;;;;4.60;99.90;;;;;;4880871;29;19928;-88
2022/03/18 03:48:56;;;;;;;;;;;4.70;99.90;;;;;;4889479;29;19935;-88
2022/03/18 03:51:23;;;;;;;;;;;3.80;99.90;;;;;;4882988;29;19927;-88
2022/03/18 03:53:52;;;;;;;;;;;4.60;99.90;;;;;;4866551;29;19935;-88
2022/03/18 03:56:19;;;;;;;;;;;4.60;99.90;;;;;;4882330;29;20323;-89
2022/03/18 03:58:47;;;;;;;;;;;4.60;99.90;;;;;;4865501;29;19927;-88
2022/03/18 04:01:15;;;;;;;;;;;3.70;99.90;;;;;;4865034;29;20565;-88
2022/03/18 04:03:47;;;;;;;;;;;4.60;99.90;;;;;;4881562;29;19928;-89
2022/03/18 04:06:15;;;;;;;;;;;4.60;99.90;;;;;;4883628;29;19947;-89
2022/03/18 04:08:42;;;;;;;;;;;4.60;99.90;;;;;;4883184;29;19927;-88
2022/03/18 04:11:10;;;;;;;;;;;4.50;99.90;;;;;;4866027;29;19928;-89
2022/03/18 04:13:37;;;;;;;;;;;4.50;99.90;;;;;;4865722;29;19934;-88
2022/03/18 04:16:05;;;;;;;;;;;4.50;99.90;;;;;;4889926;29;20013;-88
2022/03/18 04:18:32;;;;;;;;;;;4.50;99.90;;;;;;4874059;29;20380;-89
2022/03/18 04:21:00;;;;;;;;;;;4.50;99.90;;;;;;4885918;29;19927;-88
2022/03/18 04:23:27;;;;;;;;;;;4.50;99.90;;;;;;4885851;29;19932;-89
2022/03/18 04:25:59;;;;;;;;;;;4.50;99.90;;;;;;4866607;29;20380;-89
2022/03/18 04:28:26;;;;;;;;;;;4.40;99.90;;;;;;4882955;29;19935;-87
2022/03/18 04:30:54;;;;;;;;;;;4.40;99.90;;;;;;4866266;29;20300;-87
2022/03/18 04:33:23;;;;;;;;;;;4.50;99.90;;;;;;4882765;29;19928;-89
2022/03/18 04:35:51;;;;;;;;;;;4.50;99.90;;;;;;4881616;29;19939;-89
2022/03/18 04:38:20;;;;;;;;;;;4.50;99.90;;;;;;4881047;29;19935;-88
2022/03/18 04:40:47;;;;;;;;;;;4.40;99.90;;;;;;4879340;29;19963;-88
2022/03/18 04:43:15;;;;;;;;;;;4.50;99.90;;;;;;4864361;29;19936;-87
2022/03/18 04:45:42;;;;;;;;;;;4.40;99.90;;;;;;4888465;29;20179;-88
2022/03/18 04:48:10;;;;;;;;;;;4.60;99.90;;;;;;4857154;29;19928;-88
2022/03/18 04:50:37;;;;;;;;;;;4.40;99.90;;;;;;4865146;29;19932;-88
2022/03/18 04:53:05;;;;;;;;;;;4.60;99.90;;;;;;4887295;29;19939;-88
2022/03/18 04:55:32;;;;;;;;;;;4.20;99.90;;;;;;4880485;29;19927;-87
2022/03/18 04:57:59;;;;;;;;;;;4.40;99.90;;;;;;4882168;29;19928;-87
2022/03/18 05:00:28;;;;;;;;;;;4.30;99.90;;;;;;4873536;29;19935;-88
2022/03/18 05:02:59;;;;;;;;;;;4.30;99.90;;;;;;4880258;29;20168;-88
2022/03/18 05:05:26;;;;;;;;;;;4.30;99.90;;;;;;4879382;29;19928;-88
2022/03/18 05:07:55;;;;;;;;;;;4.30;99.90;;;;;;4857376;29;20322;-88
2022/03/18 05:10:24;;;;;;;;;;;4.30;99.90;;;;;;4878837;29;19927;-87
2022/03/18 05:12:53;;;;;;;;;;;4.20;99.90;;;;;;4878872;29;19928;-88
2022/03/18 05:15:20;;;;;;;;;;;4.30;99.90;;;;;;4847440;29;19927;-88
2022/03/18 05:17:50;;;;;;;;;;;4.20;99.90;;;;;;4879594;29;19938;-89
2022/03/18 05:20:18;;;;;;;;;;;3.40;99.90;;;;;;4835869;29;19936;-88
2022/03/18 05:22:45;;;;;;;;;;;4.20;99.90;;;;;;4876739;29;19959;-89
2022/03/18 05:25:14;;;;;;;;;;;4.10;99.90;;;;;;4875906;29;19928;-89
2022/03/18 05:27:42;;;;;;;;;;;4.30;99.90;;;;;;4875398;29;19935;-87
2022/03/18 05:30:11;;;;;;;;;;;4.10;99.90;;;;;;4864734;29;19931;-88
2022/03/18 05:32:40;;;;;;;;;;;4.10;99.90;;;;;;4879234;29;20503;-88
2022/03/18 05:35:08;;;;;;;;;;;4.10;99.90;;;;;;4880610;29;19928;-87
2022/03/18 05:37:36;;;;;;;;;;;4.10;99.90;;;;;;4880846;29;19938;-86
2022/03/18 05:40:04;;;;;;;;;;;4.10;99.90;;;;;;4879928;29;19935;-87
2022/03/18 05:42:32;;;;;;;;;;;3.70;99.90;;;;;;4861298;29;19939;-88
2022/03/18 05:45:00;;;;;;;;;;;4.20;99.90;;;;;;4882209;29;19928;-88
2022/03/18 05:47:29;;;;;;;;;;;4.00;99.90;;;;;;4867892;29;19935;-89
2022/03/18 05:50:01;;;;;;;;;;;4.00;99.90;;;;;;4854826;29;19938;-89
2022/03/18 05:52:30;;;;;;;;;;;4.00;99.90;;;;;;4882488;29;19951;-87
2022/03/18 05:54:58;;;;;;;;;;;4.00;99.90;;;;;;4889215;29;19916;-88
2022/03/18 05:57:26;;;;;;;;;;;4.00;99.90;;;;;;4889264;29;19927;-88
2022/03/18 05:59:55;;;;;;;;;;;4.00;99.90;;;;;;4875374;29;19916;-88
2022/03/18 06:02:23;;;;;;;;;;;4.00;99.90;;;;;;4896831;29;19932;-88
2022/03/18 06:04:51;;;;;;;;;;;4.10;99.90;;;;;;4891744;29;19927;-88
2022/03/18 06:07:19;;;;;;;;;;;2.30;99.90;;;;;;4870543;29;19928;-88
2022/03/18 06:12:35;;;;;;;;;;;3.90;99.90;;;;;;4878564;29;19928;-87
2022/03/18 06:15:02;;;;;;;;;;;3.90;99.90;;;;;;4884371;29;20402;-86
2022/03/18 06:17:32;;;;;;;;;;;3.90;99.90;;;;;;4883330;29;19935;-87
2022/03/18 06:20:01;;;;;;;;;;;4.00;99.90;;;;;;4866648;29;19939;-87
2022/03/18 06:22:29;;;;;;;;;;;4.00;99.90;;;;;;4882764;29;19938;-88
2022/03/18 06:24:57;;;;;;;;;;;4.00;99.90;;;;;;4866047;29;19931;-89
2022/03/18 06:27:25;;;;;;;;;;;4.00;99.90;;;;;;4884201;29;19947;-88
2022/03/18 06:29:53;;;;;;;;;;;4.00;99.90;;;;;;4885144;29;19935;-90
2022/03/18 06:32:22;;;;;;;;;;;4.10;99.90;;;;;;4891068;29;19935;-89
2022/03/18 06:34:54;;;;;;;;;;;4.10;99.90;;;;;;4861928;29;19928;-88
2022/03/18 06:37:21;;;;;;;;;;;4.10;99.90;;;;;;4892909;29;20379;-87
2022/03/18 06:39:51;;;;;;;;;;;4.10;99.90;;;;;;4892765;29;19931;-88
2022/03/18 06:42:19;;;;;;;;;;;4.20;99.90;;;;;;4894752;29;19935;-88
2022/03/18 06:44:50;;;;;;;;;;;4.20;99.90;;;;;;4877720;29;19939;-89
2022/03/18 06:47:17;;;;;;;;;;;4.40;99.90;;;;;;4869414;29;19928;-87
2022/03/18 06:49:45;;;;;;;;;;;4.20;99.90;;;;;;4873932;29;19939;-89
2022/03/18 06:52:14;;;;;;;;;;;4.20;99.90;;;;;;4856925;29;19924;-89
2022/03/18 06:54:41;;;;;;;;;;;4.30;99.90;;;;;;4869983;29;19935;-89
2022/03/18 06:57:12;;;;;;;;;;;4.30;99.90;;;;;;4886658;29;20283;-86
2022/03/18 06:59:40;;;;;;;;;;;4.40;99.90;;;;;;4869246;29;19934;-88
2022/03/18 07:02:10;;;;;;;;;;;4.30;99.90;;;;;;4870033;29;20585;-90
2022/03/18 07:04:38;;;;;;;;;;;4.40;99.90;;;;;;4869048;29;20291;-93
2022/03/18 07:07:07;;;;;;;;;;;4.50;99.90;;;;;;4866496;29;19943;-88
2022/03/18 07:09:36;;;;;;;;;;;4.50;99.90;;;;;;4866804;29;19928;-88
2022/03/18 07:12:05;;;;;;;;;;;5.30;99.90;;;;;;4882642;29;19932;-89
2022/03/18 07:14:36;;;;;;;;;;;4.60;99.90;;;;;;4868245;29;19932;-89
2022/03/18 07:19:52;;;;;;;;;;;4.70;99.90;;;;;;4916686;23;19927;-80
2022/03/18 07:22:23;;;;;;;;;;;4.80;99.90;;;;;;4908804;29;20004;-83
2022/03/18 07:24:51;;;;;;;;;;;4.80;99.90;;;;;;4909983;29;19934;-84
2022/03/18 07:27:20;;;;;;;;;;;6.00;99.90;;;;;;4902959;29;19928;-81
2022/03/18 07:29:58;;;;;;;;;;;4.90;99.90;;;;;;4899360;29;19931;-81
2022/03/18 07:32:26;;;;;;;;;;;4.00;99.90;;;;;;4892516;29;20386;-82
2022/03/18 07:34:54;;;;;;;;;;;5.10;99.90;;;;;;4908248;29;19939;-83
2022/03/18 07:37:22;;;;;;;;;;;5.10;99.90;;;;;;4907890;29;19931;-82
2022/03/18 07:39:51;;;;;;;;;;;5.20;99.90;;;;;;4908494;29;19937;-83
2022/03/18 07:42:19;;;;;;;;;;;5.30;99.90;;;;;;4906987;29;20407;-82
2022/03/18 07:44:47;;;;;;;;;;;5.40;99.90;;;;;;4910525;29;19928;-82
2022/03/18 07:47:15;;;;;;;;;;;5.40;99.90;;;;;;4906383;29;19927;-81
2022/03/18 07:49:43;;;;;;;;;;;5.50;99.90;;;;;;4887297;29;19937;-81
2022/03/18 07:52:10;;;;;;;;;;;5.60;99.90;;;;;;4898972;29;19927;-83
2022/03/18 07:54:39;;;;;;;;;;;5.70;99.90;;;;;;4905485;29;19937;-83
2022/03/18 07:57:06;;;;;;;;;;;5.80;99.90;;;;;;4880665;29;20696;-81
2022/03/18 07:59:34;;;;;;;;;;;6.00;99.90;;;;;;4900585;29;19935;-80
2022/03/18 08:02:03;;;;;;;;;;;6.10;99.90;;;;;;4907297;29;19923;-80
2022/03/18 08:04:30;;;;;;;;;;;6.30;99.90;;;;;;4906110;29;19932;-81
2022/03/18 08:07:00;;;;;;;;;;;6.30;99.90;;;;;;4898337;29;19927;-80
2022/03/18 08:09:28;;;;;;;;;;;6.50;99.90;;;;;;4903739;29;19928;-80
2022/03/18 08:11:56;;;;;;;;;;;6.60;99.90;;;;;;4896901;29;19928;-81
2022/03/18 08:14:24;;;;;;;;;;;6.70;99.90;;;;;;4907954;29;19928;-82
2022/03/18 08:16:52;;;;;;;;;;;6.90;99.90;;;;;;4892859;29;19934;-81
2022/03/18 08:19:20;;;;;;;;;;;6.90;99.90;;;;;;4906688;29;19927;-81
2022/03/18 08:21:47;;;;;;;;;;;7.00;99.90;;;;;;4906865;29;19943;-82
2022/03/18 08:24:18;;;;;;;;;;;7.10;99.90;;;;;;4904874;29;19935;-81
2022/03/18 08:26:48;;;;;;;;;;;7.30;99.90;;;;;;4887988;29;20103;-81
2022/03/18 08:29:22;;;;;;;;;;;7.40;99.90;;;;;;4887818;29;19928;-81
2022/03/18 08:31:50;;;;;;;;;;;7.40;99.90;;;;;;4903229;29;19939;-82
2022/03/18 08:34:18;;;;;;;;;;;7.70;99.90;;;;;;4888405;29;19946;-80
2022/03/18 08:36:46;;;;;;;;;;;7.70;99.90;;;;;;4890528;29;19944;-79
2022/03/18 08:39:13;;;;;;;;;;;8.00;99.90;;;;;;4896755;29;20036;-84
2022/03/18 08:41:42;;;;;;;;;;;8.00;99.90;;;;;;4886653;29;19935;-80
2022/03/18 08:44:09;;;;;;;;;;;8.10;99.90;;;;;;4872188;29;19943;-81
2022/03/18 08:46:37;;;;;;;;;;;8.20;99.90;;;;;;4891949;29;19934;-80
2022/03/18 08:49:05;;;;;;;;;;;8.20;99.90;;;;;;4889097;29;19928;-80
2022/03/18 08:51:33;;;;;;;;;;;8.50;99.90;;;;;;4900886;29;19947;-82
2022/03/18 08:54:02;;;;;;;;;;;8.80;99.90;;;;;;4884604;29;19932;-79
2022/03/18 08:56:30;;;;;;;;;;;8.70;99.90;;;;;;4889232;29;19943;-82
2022/03/18 08:58:58;;;;;;;;;;;8.80;99.90;;;;;;4896336;29;19937;-81
2022/03/18 09:01:26;;;;;;;;;;;8.90;99.90;;;;;;4908546;29;19931;-80
2022/03/18 09:03:54;;;;;;;;;;;9.10;99.90;;;;;;4888288;29;19927;-80
2022/03/18 09:06:21;;;;;;;;;;;9.20;99.90;;;;;;4888166;29;19942;-80
2022/03/18 09:08:49;;;;;;;;;;;9.30;99.90;;;;;;4894132;29;19943;-81
2022/03/18 09:11:17;;;;;;;;;;;9.40;99.90;;;;;;4904683;29;19931;-82
2022/03/18 09:13:46;;;;;;;;;;;9.50;99.90;;;;;;4906600;29;19931;-81
2022/03/18 09:16:14;;;;;;;;;;;9.60;99.90;;;;;;4897360;29;19927;-81
2022/03/18 09:19:00;;;;;;;;;;;9.70;99.90;;;;;;4902806;29;19936;-81
2022/03/18 09:21:27;;;;;;;;;;;9.80;99.90;;;;;;4901045;29;20281;-79
2022/03/18 09:23:56;;;;;;;;;;;9.80;99.90;;;;;;4907552;29;19934;-81
2022/03/18 09:26:23;;;;;;;;;;;9.90;99.90;;;;;;4883359;29;19928;-81
2022/03/18 09:28:51;;;;;;;;;;;10.00;99.90;;;;;;4905751;29;19943;-83
2022/03/18 09:31:21;;;;;;;;;;;10.10;99.90;;;;;;4890921;29;21482;-80
2022/03/18 09:33:49;;;;;;;;;;;10.10;99.90;;;;;;4898432;29;20321;-82
2022/03/18 09:36:18;;;;;;;;;;;11.90;99.90;;;;;;4897456;29;19938;-82
2022/03/18 09:38:47;;;;;;;;;;;10.30;99.90;;;;;;4900576;29;20420;-81
2022/03/18 09:41:16;;;;;;;;;;;10.30;99.90;;;;;;4910466;29;19928;-81
2022/03/18 09:43:44;;;;;;;;;;;10.40;99.90;;;;;;4902380;29;19943;-81
2022/03/18 09:46:13;;;;;;;;;;;10.50;99.90;;;;;;4903933;29;19928;-80
2022/03/18 09:49:01;;;;;;;;;;;11.60;99.90;;;;;;4905405;29;19932;-79
2022/03/18 09:51:29;;;;;;;;;;;10.70;99.90;;;;;;4890673;29;20348;-80
2022/03/18 09:54:26;;;;;;;;;;;10.80;99.90;;;;;;4898218;29;19928;-81
2022/03/18 09:56:54;;;;;;;;;;;10.90;99.90;;;;;;4893810;29;20112;-80
2022/03/18 09:59:22;;;;;;;;;;;11.00;99.90;;;;;;4906653;29;19939;-80
2022/03/18 10:01:50;;;;;;;;;;;11.10;99.90;;;;;;4903247;29;19939;-83
2022/03/18 10:04:18;;;;;;;;;;;11.20;99.90;;;;;;4906537;29;19927;-81
2022/03/18 10:06:45;;;;;;;;;;;11.30;99.90;;;;;;4906374;29;19931;-80
2022/03/18 10:09:14;;;;;;;;;;;11.40;99.90;;;;;;4906653;29;19932;-80
2022/03/18 10:11:46;;;;;;;;;;;11.50;99.90;;;;;;4905666;29;19928;-81
2022/03/18 10:14:15;;;;;;;;;;;11.60;99.90;;;;;;4887157;29;19931;-81
2022/03/18 10:16:43;;;;;;;;;;;11.70;99.90;;;;;;4902423;29;20294;-80
2022/03/18 10:19:12;;;;;;;;;;;11.70;99.90;;;;;;4878989;29;19931;-81
2022/03/18 10:22:05;;;;;;;;;;;11.80;99.90;;;;;;4901743;29;19942;-82
2022/03/18 10:24:35;;;;;;;;;;;11.90;99.90;;;;;;4895232;29;19928;-81
2022/03/18 10:27:15;;;;;;;;;;;12.00;99.90;;;;;;4897112;29;20405;-84
2022/03/18 10:29:46;;;;;;;;;;;12.10;99.90;;;;;;4896680;29;19927;-82
2022/03/18 10:32:15;;;;;;;;;;;12.20;99.90;;;;;;4902574;29;19942;-82
2022/03/18 10:37:44;;;;;;;;;;;12.30;99.90;;;;;;4896543;29;19941;-82
2022/03/18 10:40:13;;;;;;;;;;;12.40;99.90;;;;;;4895280;29;19928;-81
2022/03/18 10:42:41;;;;;;;;;;;12.50;99.90;;;;;;4896596;29;19932;-82
2022/03/18 10:45:09;;;;;;;;;;;12.50;99.90;;;;;;4896900;29;19936;-81
2022/03/18 10:47:41;;;;;;;;;;;11.30;99.90;;;;;;4902248;29;19934;-85
2022/03/18 10:50:11;;;;;;;;;;;12.60;99.90;;;;;;4897607;29;20397;-82
2022/03/18 10:52:48;;;;;;;;;;;12.50;99.90;;;;;;4899974;29;19932;-81
2022/03/18 10:55:20;;;;;;;;;;;12.80;99.90;;;;;;4897556;29;19932;-81
2022/03/18 10:57:49;;;;;;;;;;;12.90;99.90;;;;;;4899771;29;19927;-82
2022/03/18 11:00:18;;;;;;;;;;;13.00;99.90;;;;;;4900934;29;19939;-82
2022/03/18 11:02:49;;;;;;;;;;;13.10;99.90;;;;;;4902364;29;19936;-84
2022/03/18 11:05:21;;;;;;;;;;;13.20;99.90;;;;;;4902839;29;19935;-85
2022/03/18 11:07:52;;;;;;;;;;;13.20;99.90;;;;;;4890372;29;19942;-80
2022/03/18 11:13:08;;;;;;;;;;;13.40;99.90;;;;;;4910264;29;19927;-83
2022/03/18 11:15:39;;;;;;;;;;;13.50;99.90;;;;;;4908217;29;19957;-81
2022/03/18 11:18:10;;;;;;;;;;;13.60;99.90;;;;;;4902601;29;19943;-82
2022/03/18 11:20:43;;;;;;;;;;;13.70;99.90;;;;;;4902794;29;19943;-82
2022/03/18 11:23:20;;;;;;;;;;;13.70;99.90;;;;;;4881076;29;19934;-83
2022/03/18 11:25:50;;;;;;;;;;;13.80;99.90;;;;;;4882781;29;19939;-81
2022/03/18 11:28:19;;;;;;;;;;;13.80;99.90;;;;;;4892796;29;19928;-82
2022/03/18 11:30:47;;;;;;;;;;;13.90;99.90;;;;;;4907792;29;19935;-81
2022/03/18 11:33:15;;;;;;;;;;;13.90;99.90;;;;;;4899690;29;19928;-81
2022/03/18 11:35:49;;;;;;;;;;;14.00;99.90;;;;;;4900638;29;19932;-82
2022/03/18 11:38:23;;;;;;;;;;;13.40;99.90;;;;;;4899914;29;19927;-84
2022/03/18 11:40:58;;;;;;;;;;;14.00;99.90;;;;;;4901070;29;19935;-82
2022/03/18 11:43:29;;;;;;;;;;;14.00;99.90;;;;;;4897603;29;20295;-83
2022/03/18 11:46:20;;;;;;;;;;;14.00;99.90;;;;;;4905738;29;19927;-82
2022/03/18 11:48:57;;;;;;;;;;;14.00;99.90;;;;;;4897216;29;19958;-81
2022/03/18 11:51:25;;;;;;;;;;;14.00;99.90;;;;;;4900716;29;19952;-81
2022/03/18 11:53:54;;;;;;;;;;;14.00;99.90;;;;;;4905332;29;19938;-81
2022/03/18 11:56:23;;;;;;;;;;;14.10;99.90;;;;;;4908610;29;19931;-82
2022/03/18 11:58:52;;;;;;;;;;;14.10;99.90;;;;;;4897956;29;20440;-83
2022/03/18 12:01:50;;;;;;;;;;;14.20;99.90;;;;;;4897877;29;19927;-81
2022/03/18 12:04:33;;;;;;;;;;;14.30;99.90;;;;;;4900246;29;19941;-82
2022/03/18 12:07:07;;;;;;;;;;;14.30;99.90;;;;;;4908982;29;19939;-81
2022/03/18 12:09:47;;;;;;;;;;;14.50;99.90;;;;;;4891740;29;20390;-83
2022/03/18 12:12:16;;;;;;;;;;;14.40;99.90;;;;;;4898113;29;19932;-82
2022/03/18 12:14:44;;;;;;;;;;;14.50;99.90;;;;;;4902800;29;19935;-82
2022/03/18 12:17:12;;;;;;;;;;;14.50;99.90;;;;;;4889690;29;19931;-83
2022/03/18 12:19:53;;;;;;;;;;;14.60;99.90;;;;;;4899842;29;20401;-82
2022/03/18 12:22:22;;;;;;;;;;;14.60;99.90;;;;;;4898746;29;19932;-81
2022/03/18 12:24:51;;;;;;;;;;;14.80;99.90;;;;;;4907154;29;19938;-81
2022/03/18 12:27:20;;;;;;;;;;;14.70;99.90;;;;;;4904584;29;19935;-82
2022/03/18 12:29:48;;;;;;;;;;;14.70;99.90;;;;;;4907710;29;20243;-82
2022/03/18 12:32:18;;;;;;;;;;;14.70;99.90;;;;;;4903701;29;19927;-82
2022/03/18 12:34:48;;;;;;;;;;;15.10;99.90;;;;;;4897747;29;19950;-83
2022/03/18 12:37:17;;;;;;;;;;;14.80;99.90;;;;;;4904981;29;19941;-84
2022/03/18 12:39:48;;;;;;;;;;;15.00;99.90;;;;;;4897733;29;19927;-81
2022/03/18 12:42:16;;;;;;;;;;;15.10;99.90;;;;;;4902134;29;19928;-82
2022/03/18 12:44:46;;;;;;;;;;;15.20;99.90;;;;;;4881428;29;20445;-82
2022/03/18 12:47:14;;;;;;;;;;;15.10;99.90;;;;;;4895866;29;19934;-83
2022/03/18 12:49:42;;;;;;;;;;;15.20;99.90;;;;;;4884516;29;19931;-82
2022/03/18 12:52:13;;;;;;;;;;;15.20;99.90;;;;;;4908277;29;19935;-82
2022/03/18 12:55:01;;;;;;;;;;;15.20;99.90;;;;;;4906997;29;19938;-80
2022/03/18 12:57:37;;;;;;;;;;;15.30;99.90;;;;;;4888935;29;19934;-82
2022/03/18 13:00:05;;;;;;;;;;;15.40;99.90;;;;;;4883063;29;19934;-81
2022/03/18 13:02:54;;;;;;;;;;;15.40;99.90;;;;;;4902275;29;19934;-83
2022/03/18 13:05:26;;;;;;;;;;;15.30;99.90;;;;;;4889210;29;19928;-82
2022/03/18 13:07:55;;;;;;;;;;;15.40;99.90;;;;;;4896789;29;19928;-83
2022/03/18 13:10:23;;;;;;;;;;;15.40;99.90;;;;;;4891490;29;19938;-81
2022/03/18 13:12:51;;;;;;;;;;;15.30;99.90;;;;;;4907192;29;19942;-82
2022/03/18 13:15:20;;;;;;;;;;;15.30;99.90;;;;;;4875046;29;20429;-81
2022/03/18 13:17:48;;;;;;;;;;;15.30;99.90;;;;;;4886892;29;19940;-82
2022/03/18 13:20:22;;;;;;;;;;;15.30;99.90;;;;;;4904849;29;19932;-82
2022/03/18 13:22:56;;;;;;;;;;;15.30;99.90;;;;;;4891933;29;19931;-82
2022/03/18 13:25:25;;;;;;;;;;;15.40;99.90;;;;;;4907575;29;20088;-82
2022/03/18 13:27:53;;;;;;;;;;;15.40;99.90;;;;;;4880407;29;19931;-81
2022/03/18 13:33:11;;;;;;;;;;;15.40;99.90;;;;;;4898869;29;19935;-81
2022/03/18 13:35:46;;;;;;;;;;;15.50;99.90;;;;;;4891114;29;19927;-82
2022/03/18 13:38:16;;;;;;;;;;;15.50;99.90;;;;;;4900104;29;19939;-81
2022/03/18 13:40:55;;;;;;;;;;;15.50;99.90;;;;;;4905339;29;19935;-83
2022/03/18 13:43:49;;;;;;;;;;;15.60;99.90;;;;;;4894613;29;19935;-83
2022/03/18 13:46:18;;;;;;;;;;;15.60;99.90;;;;;;4894049;29;19931;-82
2022/03/18 13:48:49;;;;;;;;;;;15.80;99.90;;;;;;4888250;29;19939;-82
2022/03/18 13:51:31;;;;;;;;;;;15.90;99.90;;;;;;4904060;29;19933;-83
2022/03/18 13:54:08;;;;;;;;;;;16.00;99.90;;;;;;4899274;29;19931;-82
2022/03/18 13:56:39;;;;;;;;;;;16.00;99.90;;;;;;4897420;29;19927;-83
2022/03/18 13:59:09;;;;;;;;;;;16.00;99.90;;;;;;4900039;29;19934;-81
2022/03/18 14:01:37;;;;;;;;;;;16.20;99.70;;;;;;4905723;29;19927;-81
2022/03/18 14:04:05;;;;;;;;;;;16.20;99.90;;;;;;4901353;29;19934;-82
2022/03/18 14:06:51;;;;;;;;;;;16.30;99.80;;;;;;4904894;29;19951;-83
2022/03/18 14:09:59;;;;;;;;;;;16.30;99.10;;;;;;4905178;29;19927;-82
2022/03/18 14:12:28;;;;;;;;;;;16.30;99.00;;;;;;4905029;29;19938;-80
2022/03/18 14:15:14;;;;;;;;;;;16.10;99.20;;;;;;4902500;29;19931;-82
2022/03/18 14:17:56;;;;;;;;;;;16.80;99.00;;;;;;4897577;29;19942;-85
2022/03/18 14:20:26;;;;;;;;;;;16.20;99.10;;;;;;4920431;29;19934;-83
2022/03/18 14:22:57;;;;;;;;;;;16.60;99.00;;;;;;4907193;29;20313;-82
2022/03/18 14:25:29;;;;;;;;;;;16.40;98.80;;;;;;4904909;29;19928;-82
2022/03/18 14:27:58;;;;;;;;;;;16.40;98.40;;;;;;4895766;29;19938;-82
2022/03/18 14:30:27;;;;;;;;;;;16.40;98.40;;;;;;4892639;29;19927;-84
2022/03/18 14:32:56;;;;;;;;;;;16.60;98.60;;;;;;4894275;29;19932;-86
2022/03/18 14:35:30;;;;;;;;;;;16.70;98.10;;;;;;4896752;29;19935;-83
2022/03/18 14:38:25;;;;;;;;;;;16.90;98.10;;;;;;4892367;29;19938;-85
2022/03/18 14:41:01;;;;;;;;;;;17.00;98.00;;;;;;4909284;29;19931;-84
2022/03/18 14:43:33;;;;;;;;;;;17.20;97.70;;;;;;4897271;29;19928;-85
2022/03/18 14:46:03;;;;;;;;;;;17.30;97.30;;;;;;4896722;29;20398;-84
2022/03/18 14:48:33;;;;;;;;;;;17.40;97.10;;;;;;4903472;29;19947;-86
2022/03/18 14:51:03;;;;;;;;;;;16.40;96.60;;;;;;4899153;29;19936;-85
2022/03/18 14:53:32;;;;;;;;;;;17.60;97.20;;;;;;4895457;29;19942;-85
2022/03/18 14:56:19;;;;;;;;;;;17.70;97.00;;;;;;4876829;29;19938;-84
2022/03/18 14:58:47;;;;;;;;;;;18.00;95.60;;;;;;4897698;29;19932;-84
2022/03/18 15:01:19;;;;;;;;;;;18.00;96.10;;;;;;4908796;29;19928;-84
2022/03/18 15:03:51;;;;;;;;;;;18.20;95.30;;;;;;4907319;29;19931;-92